Time;durP1;ratioP1;P1;durP2;ratioP2;P2;SDS_P1;SDS_P2;PMS_P1;PMS_P2;Temp;Humidity;BMP_temperature;BMP_pressure;BME280_temperature;BME280_humidity;BME280_pressure;Samples;Min_cycle;Max_cycle;Signal;HPM_P1;HPM_P2
2023/06/16 00:00:38;;;;;;;7.20;5.37;;;18.30;99.90;;;;;;5027375;28;20212;-69
2023/06/16 00:03:05;;;;;;;5.73;4.57;;;18.30;99.90;;;;;;5027321;28;20504;-69
2023/06/16 00:05:34;;;;;;;5.20;4.70;;;18.40;99.90;;;;;;5030099;28;21144;-69
2023/06/16 00:08:02;;;;;;;4.90;4.50;;;18.50;99.90;;;;;;5031627;28;20520;-69
2023/06/16 00:10:28;;;;;;;5.10;4.70;;;18.50;99.60;;;;;;5031536;28;20823;-69
2023/06/16 00:12:54;;;;;;;6.00;5.30;;;18.60;98.70;;;;;;5030943;28;20405;-69
2023/06/16 00:15:20;;;;;;;4.60;4.20;;;18.60;98.90;;;;;;5030130;28;20586;-69
2023/06/16 00:17:46;;;;;;;4.63;4.13;;;18.60;98.60;;;;;;5043192;28;20667;-69
2023/06/16 00:20:21;;;;;;;5.00;4.23;;;18.60;98.70;;;;;;5051801;28;20419;-69
2023/06/16 00:22:50;;;;;;;4.47;4.07;;;18.60;98.70;;;;;;5051048;28;20420;-69
2023/06/16 00:25:19;;;;;;;5.73;4.10;;;18.50;98.70;;;;;;5050740;28;20452;-69
2023/06/16 00:27:45;;;;;;;4.63;4.23;;;18.50;99.00;;;;;;5051375;28;20412;-69
2023/06/16 00:30:12;;;;;;;4.67;4.27;;;18.40;99.10;;;;;;5051101;28;20408;-69
2023/06/16 00:32:37;;;;;;;6.30;4.40;;;18.30;99.60;;;;;;5050622;28;20807;-69
2023/06/16 00:35:03;;;;;;;5.93;4.80;;;18.30;99.40;;;;;;5050633;28;20465;-69
2023/06/16 00:37:29;;;;;;;8.47;4.33;;;18.30;99.80;;;;;;5051154;28;20205;-69
2023/06/16 00:39:55;;;;;;;7.87;4.67;;;18.20;99.60;;;;;;5050981;28;20523;-69
2023/06/16 00:42:21;;;;;;;8.37;4.60;;;18.20;99.70;;;;;;5050353;28;20190;-69
2023/06/16 00:44:46;;;;;;;4.43;4.03;;;18.10;99.90;;;;;;5050558;28;20228;-70
2023/06/16 00:47:12;;;;;;;6.70;4.47;;;18.10;99.90;;;;;;5050847;28;20173;-70
2023/06/16 00:49:39;;;;;;;4.80;4.30;;;18.00;99.90;;;;;;5050977;28;20659;-70
2023/06/16 00:52:07;;;;;;;5.37;3.87;;;18.00;99.90;;;;;;5044045;28;20423;-70
2023/06/16 00:54:33;;;;;;;4.50;4.10;;;17.90;99.90;;;;;;5030730;28;20922;-70
2023/06/16 00:56:59;;;;;;;5.30;4.63;;;17.90;99.90;;;;;;5029587;28;20429;-69
2023/06/16 00:59:27;;;;;;;7.00;5.23;;;17.80;99.90;;;;;;5030718;28;20532;-70
2023/06/16 01:01:54;;;;;;;5.40;4.90;;;17.80;99.90;;;;;;5030093;28;20417;-69
2023/06/16 01:04:23;;;;;;;5.17;4.67;;;17.70;99.90;;;;;;5030150;28;20533;-70
2023/06/16 01:07:11;;;;;;;5.93;5.33;;;17.70;99.90;;;;;;5030685;28;20410;-70
2023/06/16 01:09:54;;;;;;;5.03;4.50;;;17.60;99.90;;;;;;5030679;28;20429;-70
2023/06/16 01:12:38;;;;;;;6.23;4.30;;;17.50;99.90;;;;;;5029865;28;20957;-70
2023/06/16 01:15:11;;;;;;;4.50;4.10;;;17.40;99.90;;;;;;5030358;28;20410;-69
2023/06/16 01:17:44;;;;;;;5.50;5.00;;;17.40;99.90;;;;;;5038478;28;20833;-69
2023/06/16 01:20:37;;;;;;;4.80;4.40;;;17.30;99.90;;;;;;5038502;28;20428;-69
2023/06/16 01:23:20;;;;;;;4.63;4.10;;;17.30;99.90;;;;;;5029467;28;20417;-69
2023/06/16 01:25:48;;;;;;;6.13;4.60;;;17.20;99.90;;;;;;5029157;28;20459;-69
2023/06/16 01:28:19;;;;;;;5.33;4.27;;;17.20;99.90;;;;;;5030196;28;20939;-69
2023/06/16 01:30:50;;;;;;;4.80;4.30;;;17.20;99.90;;;;;;5030345;28;20413;-69
2023/06/16 01:33:18;;;;;;;5.00;4.50;;;17.30;99.90;;;;;;5029085;28;20409;-69
2023/06/16 01:35:47;;;;;;;4.80;4.03;;;17.30;99.90;;;;;;5030173;28;20933;-69
2023/06/16 01:38:14;;;;;;;4.73;4.33;;;17.20;99.90;;;;;;5028688;28;20441;-69
2023/06/16 01:40:41;;;;;;;5.57;4.40;;;17.20;99.90;;;;;;5030091;28;20832;-69
2023/06/16 01:43:08;;;;;;;5.40;4.90;;;17.20;99.90;;;;;;5029095;28;20438;-69
2023/06/16 01:45:35;;;;;;;4.73;4.23;;;17.20;99.90;;;;;;5029691;28;21190;-69
2023/06/16 01:48:02;;;;;;;4.40;4.10;;;17.20;99.90;;;;;;5029808;28;20477;-69
2023/06/16 01:50:28;;;;;;;4.63;4.23;;;17.20;99.90;;;;;;5029917;28;20858;-69
2023/06/16 01:52:54;;;;;;;6.03;4.60;;;17.20;99.90;;;;;;5028962;28;20989;-69
2023/06/16 01:55:20;;;;;;;4.90;4.50;;;17.10;99.90;;;;;;5029722;28;20413;-69
2023/06/16 01:57:47;;;;;;;4.77;4.37;;;17.00;99.90;;;;;;5029427;28;20190;-69
2023/06/16 02:00:26;;;;;;;4.50;4.10;;;17.10;99.90;;;;;;5029917;28;20546;-69
2023/06/16 02:02:59;;;;;;;5.20;4.40;;;17.10;99.90;;;;;;5029017;28;20421;-69
2023/06/16 02:05:25;;;;;;;4.30;3.90;;;17.10;99.90;;;;;;5029600;28;20464;-69
2023/06/16 02:07:55;;;;;;;4.87;4.47;;;17.10;99.90;;;;;;5029690;28;20412;-69
2023/06/16 02:10:22;;;;;;;4.47;4.07;;;17.00;99.90;;;;;;5029861;28;20495;-69
2023/06/16 02:12:48;;;;;;;5.13;4.20;;;17.00;99.90;;;;;;5028778;28;20437;-69
2023/06/16 02:15:20;;;;;;;4.07;3.77;;;16.90;99.90;;;;;;5029573;28;20817;-69
2023/06/16 02:17:47;;;;;;;5.10;4.70;;;16.90;99.90;;;;;;5028424;28;20786;-69
2023/06/16 02:20:13;;;;;;;4.20;3.80;;;16.80;99.90;;;;;;5029590;28;20425;-69
2023/06/16 02:22:39;;;;;;;5.60;4.40;;;16.80;99.90;;;;;;5028978;28;20843;-69
2023/06/16 02:25:05;;;;;;;5.17;4.67;;;16.70;99.90;;;;;;5029162;28;20539;-69
2023/06/16 02:27:31;;;;;;;5.20;4.70;;;16.70;99.90;;;;;;5029119;28;20269;-69
2023/06/16 02:29:57;;;;;;;4.80;4.40;;;16.70;99.90;;;;;;5029090;28;20558;-69
2023/06/16 02:32:22;;;;;;;8.70;4.90;;;16.70;99.90;;;;;;5028515;28;20233;-69
2023/06/16 02:34:48;;;;;;;4.97;4.47;;;16.60;99.90;;;;;;5028838;28;20258;-69
2023/06/16 02:37:14;;;;;;;6.00;4.50;;;16.60;99.90;;;;;;5028984;28;20178;-69
2023/06/16 02:39:40;;;;;;;6.80;4.30;;;16.60;99.90;;;;;;5029079;28;20734;-70
2023/06/16 02:42:08;;;;;;;4.73;4.33;;;16.60;99.90;;;;;;5028419;28;20413;-70
2023/06/16 02:44:33;;;;;;;4.40;3.90;;;16.60;99.90;;;;;;5028560;28;20457;-71
2023/06/16 02:47:01;;;;;;;5.03;4.40;;;16.50;99.90;;;;;;5029027;28;20479;-69
2023/06/16 02:49:27;;;;;;;5.07;4.57;;;16.50;99.90;;;;;;5029228;28;20198;-70
2023/06/16 02:51:52;;;;;;;4.97;4.20;;;16.40;99.90;;;;;;5028432;28;20470;-70
2023/06/16 02:54:18;;;;;;;4.90;4.33;;;16.40;99.90;;;;;;5028733;28;20193;-70
2023/06/16 02:56:44;;;;;;;5.63;4.83;;;16.40;99.90;;;;;;5028805;28;20171;-70
2023/06/16 02:59:10;;;;;;;4.53;4.10;;;16.30;99.90;;;;;;5028736;28;20194;-70
2023/06/16 03:01:37;;;;;;;4.47;4.00;;;16.30;99.90;;;;;;5028515;28;20170;-70
2023/06/16 03:04:03;;;;;;;5.07;4.23;;;16.30;99.90;;;;;;5028274;28;20448;-70
2023/06/16 03:06:29;;;;;;;4.80;4.40;;;16.30;99.90;;;;;;5028891;28;20464;-70
2023/06/16 03:08:57;;;;;;;4.53;4.10;;;16.20;99.90;;;;;;5028791;28;20456;-70
2023/06/16 03:11:23;;;;;;;5.10;4.60;;;16.20;99.90;;;;;;5028351;28;20189;-70
2023/06/16 03:13:49;;;;;;;4.97;4.57;;;16.10;99.90;;;;;;5028299;28;20437;-70
2023/06/16 03:16:16;;;;;;;6.30;4.53;;;16.10;99.90;;;;;;5028735;28;20182;-70
2023/06/16 03:18:42;;;;;;;5.63;5.03;;;16.00;99.90;;;;;;5027827;28;20708;-70
2023/06/16 03:21:08;;;;;;;5.07;4.57;;;16.00;99.90;;;;;;5028787;28;20429;-69
2023/06/16 03:23:34;;;;;;;5.07;4.57;;;15.90;99.90;;;;;;5027722;28;21116;-70
2023/06/16 03:26:00;;;;;;;5.10;4.70;;;15.90;99.90;;;;;;5028644;28;20202;-70
2023/06/16 03:28:25;;;;;;;9.83;5.60;;;15.90;99.90;;;;;;5028457;28;20458;-70
2023/06/16 03:30:54;;;;;;;4.50;4.10;;;15.80;99.90;;;;;;5028491;28;20245;-71
2023/06/16 03:33:20;;;;;;;6.53;5.10;;;15.80;99.90;;;;;;5027434;28;20179;-70
2023/06/16 03:35:46;;;;;;;4.83;4.20;;;15.70;99.90;;;;;;5028616;28;20428;-70
2023/06/16 03:38:11;;;;;;;6.20;4.60;;;15.70;99.90;;;;;;5028287;28;20437;-70
2023/06/16 03:40:38;;;;;;;5.40;4.90;;;15.70;99.90;;;;;;5030965;28;20498;-70
2023/06/16 03:43:03;;;;;;;5.40;4.90;;;15.70;99.90;;;;;;5031155;28;20181;-70
2023/06/16 03:45:29;;;;;;;5.50;5.00;;;15.80;99.90;;;;;;5032041;28;20452;-70
2023/06/16 03:47:55;;;;;;;5.60;4.50;;;15.70;99.90;;;;;;5032018;28;20269;-69
2023/06/16 03:50:20;;;;;;;4.67;4.27;;;15.60;99.90;;;;;;5032320;28;20240;-70
2023/06/16 03:52:46;;;;;;;4.37;3.97;;;15.70;99.90;;;;;;5031326;28;20244;-70
2023/06/16 03:55:13;;;;;;;5.10;4.13;;;15.70;99.90;;;;;;5031747;28;20170;-71
2023/06/16 03:57:39;;;;;;;8.40;4.93;;;15.70;99.90;;;;;;5030499;28;20174;-70
2023/06/16 04:00:09;;;;;;;5.03;4.63;;;15.70;99.90;;;;;;5031956;28;20471;-70
2023/06/16 04:02:36;;;;;;;6.07;4.90;;;15.70;99.90;;;;;;5031220;28;20499;-70
2023/06/16 04:05:02;;;;;;;4.80;4.40;;;15.70;99.90;;;;;;5031197;28;20464;-70
2023/06/16 04:07:30;;;;;;;7.27;5.40;;;15.60;99.90;;;;;;5032083;28;20401;-70
2023/06/16 04:09:55;;;;;;;5.23;4.73;;;15.60;99.90;;;;;;5031609;28;20429;-70
2023/06/16 04:12:21;;;;;;;5.40;4.90;;;15.60;99.90;;;;;;5031084;28;20412;-70
2023/06/16 04:14:47;;;;;;;4.90;4.43;;;15.60;99.90;;;;;;5030173;28;20640;-70
2023/06/16 04:17:13;;;;;;;5.07;4.57;;;15.60;99.90;;;;;;5030525;28;21219;-70
2023/06/16 04:19:39;;;;;;;5.30;4.80;;;15.70;99.90;;;;;;5031540;28;20198;-70
2023/06/16 04:22:05;;;;;;;5.80;5.10;;;15.80;99.90;;;;;;5031104;28;20228;-70
2023/06/16 04:24:31;;;;;;;6.93;5.20;;;15.90;99.90;;;;;;5031047;28;20456;-70
2023/06/16 04:26:59;;;;;;;5.50;5.00;;;15.90;99.90;;;;;;5031426;28;20648;-70
2023/06/16 04:29:27;;;;;;;6.87;5.10;;;15.90;99.90;;;;;;5031324;28;20190;-70
2023/06/16 04:31:59;;;;;;;5.17;4.77;;;15.90;99.90;;;;;;5030935;28;20496;-70
2023/06/16 04:34:25;;;;;;;6.63;5.50;;;16.00;99.90;;;;;;5030941;28;20508;-70
2023/06/16 04:36:57;;;;;;;5.80;5.30;;;16.10;99.90;;;;;;5030612;28;20929;-70
2023/06/16 04:39:23;;;;;;;7.40;5.80;;;16.20;99.90;;;;;;5026673;28;20464;-70
2023/06/16 04:41:48;;;;;;;5.33;4.83;;;16.30;99.90;;;;;;5027331;28;20911;-70
2023/06/16 04:44:14;;;;;;;6.87;5.37;;;16.50;99.90;;;;;;5027090;28;20430;-70
2023/06/16 04:46:40;;;;;;;6.97;5.23;;;16.50;99.90;;;;;;5029157;28;20575;-70
2023/06/16 04:49:06;;;;;;;6.60;6.00;;;16.60;99.90;;;;;;5030578;28;20206;-70
2023/06/16 04:51:32;;;;;;;6.80;5.87;;;16.70;99.90;;;;;;5028596;28;20198;-70
2023/06/16 04:53:58;;;;;;;5.70;4.80;;;16.70;99.90;;;;;;5026616;28;20428;-70
2023/06/16 04:56:23;;;;;;;6.27;5.67;;;16.80;99.90;;;;;;5030208;28;20417;-70
2023/06/16 04:58:49;;;;;;;6.60;6.00;;;16.90;99.90;;;;;;5030182;28;20285;-70
2023/06/16 05:01:15;;;;;;;6.47;5.77;;;16.90;99.90;;;;;;5028069;28;20206;-70
2023/06/16 05:03:40;;;;;;;6.40;5.50;;;17.00;99.90;;;;;;5029905;28;20240;-70
2023/06/16 05:06:06;;;;;;;5.40;4.90;;;17.00;99.90;;;;;;5030558;28;20210;-70
2023/06/16 05:08:32;;;;;;;6.07;5.47;;;17.00;99.90;;;;;;5030487;28;20295;-70
2023/06/16 05:10:58;;;;;;;8.13;5.73;;;17.10;99.90;;;;;;5030512;28;20647;-70
2023/06/16 05:13:24;;;;;;;6.17;5.53;;;17.10;99.90;;;;;;5029718;28;20421;-70
2023/06/16 05:15:49;;;;;;;8.50;6.00;;;17.10;99.90;;;;;;5030679;28;20524;-70
2023/06/16 05:18:15;;;;;;;8.43;6.40;;;17.20;99.90;;;;;;5030161;28;20206;-70
2023/06/16 05:20:41;;;;;;;9.20;5.93;;;17.40;99.90;;;;;;5029156;28;20194;-70
2023/06/16 05:23:06;;;;;;;7.80;6.20;;;17.50;99.90;;;;;;5029380;28;20178;-70
2023/06/16 05:25:32;;;;;;;6.97;6.27;;;17.50;99.90;;;;;;5029863;28;20683;-70
2023/06/16 05:27:58;;;;;;;6.20;5.60;;;17.60;99.90;;;;;;5029029;28;20202;-70
2023/06/16 05:30:23;;;;;;;7.57;6.20;;;17.70;99.90;;;;;;5028985;28;20206;-70
2023/06/16 05:32:49;;;;;;;6.13;5.27;;;17.80;99.90;;;;;;5029461;28;20205;-71
2023/06/16 05:35:15;;;;;;;6.07;5.47;;;17.90;99.90;;;;;;5029855;28;20205;-70
2023/06/16 05:37:40;;;;;;;7.73;5.93;;;18.00;99.90;;;;;;5030046;28;20186;-70
2023/06/16 05:40:07;;;;;;;7.40;6.07;;;18.20;99.90;;;;;;5029683;28;20183;-71
2023/06/16 05:42:33;;;;;;;9.93;5.50;;;18.20;99.90;;;;;;5028479;28;20193;-71
2023/06/16 05:44:59;;;;;;;7.67;5.60;;;18.40;99.90;;;;;;5028130;28;20461;-70
2023/06/16 05:47:24;;;;;;;7.70;5.83;;;18.40;99.90;;;;;;5029955;28;20847;-69
2023/06/16 05:49:50;;;;;;;5.90;5.30;;;18.60;99.90;;;;;;5027279;28;20292;-69
2023/06/16 05:52:16;;;;;;;6.07;4.90;;;18.70;99.90;;;;;;5026987;28;20190;-69
2023/06/16 05:54:41;;;;;;;9.97;6.30;;;18.90;99.90;;;;;;5026787;28;20520;-68
2023/06/16 05:57:07;;;;;;;6.70;6.00;;;19.00;99.90;;;;;;5026842;28;20197;-71
2023/06/16 05:59:36;;;;;;;6.77;6.10;;;19.00;99.10;;;;;;5026191;28;20688;-71
2023/06/16 06:02:01;;;;;;;6.27;5.67;;;19.10;99.10;;;;;;5026453;28;20273;-71
2023/06/16 06:04:29;;;;;;;7.50;4.77;;;19.20;98.70;;;;;;5026554;28;21077;-70
2023/06/16 06:06:55;;;;;;;6.30;5.70;;;19.30;98.50;;;;;;5026964;28;20191;-70
2023/06/16 06:09:21;;;;;;;6.20;5.57;;;19.40;98.00;;;;;;5028413;28;21252;-71
2023/06/16 06:11:46;;;;;;;6.00;5.40;;;19.40;98.00;;;;;;5027960;28;20332;-71
2023/06/16 06:14:12;;;;;;;5.63;5.00;;;19.50;98.00;;;;;;5028147;28;20500;-71
2023/06/16 06:16:38;;;;;;;5.60;5.17;;;19.50;97.80;;;;;;5028923;28;20196;-71
2023/06/16 06:19:04;;;;;;;5.97;5.23;;;19.70;98.00;;;;;;5025696;28;20202;-71
2023/06/16 06:21:30;;;;;;;7.50;5.70;;;19.80;98.00;;;;;;5024835;28;20444;-71
2023/06/16 06:23:56;;;;;;;6.87;5.43;;;19.80;97.60;;;;;;5028777;28;20186;-71
2023/06/16 06:26:21;;;;;;;9.53;5.50;;;19.90;97.60;;;;;;5028962;28;20461;-71
2023/06/16 06:28:47;;;;;;;7.17;5.80;;;20.00;98.30;;;;;;5015821;28;20206;-71
2023/06/16 06:31:13;;;;;;;5.40;4.90;;;20.00;97.00;;;;;;5014207;28;20195;-71
2023/06/16 06:33:39;;;;;;;6.10;5.13;;;20.10;98.20;;;;;;5008473;28;20664;-71
2023/06/16 06:36:05;;;;;;;6.07;5.27;;;20.10;98.50;;;;;;5015682;28;20263;-71
2023/06/16 06:38:31;;;;;;;7.20;5.23;;;20.10;98.10;;;;;;5028989;28;20571;-71
2023/06/16 06:40:56;;;;;;;5.90;5.30;;;20.10;96.90;;;;;;5027400;28;20210;-71
2023/06/16 06:43:22;;;;;;;7.77;6.03;;;20.10;96.00;;;;;;5028129;28;20193;-71
2023/06/16 06:45:49;;;;;;;6.33;5.43;;;20.20;97.50;;;;;;5027980;28;20222;-70
2023/06/16 06:48:16;;;;;;;6.60;5.90;;;20.30;97.90;;;;;;5017002;28;20210;-70
2023/06/16 06:50:42;;;;;;;6.40;5.07;;;20.40;97.80;;;;;;5015288;28;20518;-70
2023/06/16 06:53:08;;;;;;;5.40;4.90;;;20.50;97.30;;;;;;5012911;28;20507;-70
2023/06/16 06:55:33;;;;;;;8.90;5.10;;;20.60;97.00;;;;;;5009142;28;20183;-70
2023/06/16 06:57:59;;;;;;;7.60;5.67;;;20.70;96.40;;;;;;5009150;28;20207;-70
2023/06/16 07:00:25;;;;;;;7.53;5.47;;;20.80;95.40;;;;;;5009083;28;20186;-70
2023/06/16 07:02:50;;;;;;;6.23;4.73;;;20.90;95.40;;;;;;5008363;28;20248;-69
2023/06/16 07:05:16;;;;;;;8.40;5.13;;;21.00;95.20;;;;;;5008676;28;20221;-69
2023/06/16 07:07:42;;;;;;;6.50;5.20;;;21.10;95.00;;;;;;5008978;28;20175;-69
2023/06/16 07:10:08;;;;;;;5.50;4.63;;;21.20;93.10;;;;;;5009086;28;20225;-69
2023/06/16 07:12:34;;;;;;;5.13;4.30;;;21.30;91.70;;;;;;5008348;28;20183;-70
2023/06/16 07:15:00;;;;;;;12.67;4.90;;;21.30;91.10;;;;;;5010288;28;21174;-70
2023/06/16 07:17:25;;;;;;;6.20;5.07;;;21.40;90.60;;;;;;5021258;28;20422;-70
2023/06/16 07:19:51;;;;;;;6.27;4.43;;;21.50;90.90;;;;;;5012713;28;20195;-70
2023/06/16 07:22:17;;;;;;;5.00;4.37;;;21.50;90.80;;;;;;5012217;28;20183;-70
2023/06/16 07:24:42;;;;;;;4.90;4.40;;;21.50;88.20;;;;;;5012417;28;20310;-70
2023/06/16 07:27:09;;;;;;;4.50;4.10;;;21.50;81.00;;;;;;5017855;28;20175;-70
2023/06/16 07:29:34;;;;;;;4.80;4.20;;;21.60;83.30;;;;;;5032507;28;20221;-70
2023/06/16 07:32:00;;;;;;;4.50;3.70;;;21.60;84.40;;;;;;5031825;28;20413;-70
2023/06/16 07:34:26;;;;;;;5.10;4.17;;;21.60;82.00;;;;;;5032038;28;20620;-70
2023/06/16 07:36:51;;;;;;;5.60;4.57;;;21.70;83.30;;;;;;5032385;28;20178;-70
2023/06/16 07:39:17;;;;;;;7.67;4.37;;;21.70;81.50;;;;;;5032280;28;20190;-70
2023/06/16 07:41:43;;;;;;;3.97;3.67;;;21.80;79.50;;;;;;5031430;28;20216;-70
2023/06/16 07:44:09;;;;;;;7.23;4.07;;;21.90;78.20;;;;;;5031564;28;20414;-70
2023/06/16 07:46:35;;;;;;;7.20;4.37;;;21.90;78.20;;;;;;5031428;28;20483;-70
2023/06/16 07:49:01;;;;;;;6.33;4.67;;;22.00;79.10;;;;;;5030802;28;20848;-70
2023/06/16 07:51:27;;;;;;;4.37;3.90;;;22.10;77.50;;;;;;5019525;28;20186;-70
2023/06/16 07:53:53;;;;;;;7.83;4.00;;;22.20;77.30;;;;;;5011451;28;20406;-70
2023/06/16 07:56:18;;;;;;;5.10;4.40;;;22.30;76.80;;;;;;5010563;28;20255;-70
2023/06/16 07:58:45;;;;;;;7.97;4.77;;;22.30;74.30;;;;;;5011687;28;20533;-70
2023/06/16 08:01:11;;;;;;;7.00;4.50;;;22.30;74.80;;;;;;5011814;28;20191;-69
2023/06/16 08:03:37;;;;;;;4.77;4.30;;;22.20;74.10;;;;;;5011510;28;20410;-70
2023/06/16 08:06:04;;;;;;;6.07;4.00;;;22.30;74.50;;;;;;5011888;28;20214;-70
2023/06/16 08:08:32;;;;;;;7.23;4.03;;;22.30;71.80;;;;;;5011960;28;20199;-70
2023/06/16 08:10:58;;;;;;;4.30;3.73;;;22.30;71.60;;;;;;5011950;28;20573;-70
2023/06/16 08:13:25;;;;;;;5.07;3.97;;;22.30;71.70;;;;;;5009933;28;20421;-70
2023/06/16 08:15:50;;;;;;;5.60;3.43;;;22.40;70.50;;;;;;5010628;28;20414;-70
2023/06/16 08:18:17;;;;;;;4.37;3.97;;;22.40;71.50;;;;;;5011776;28;20919;-70
2023/06/16 08:20:45;;;;;;;5.23;3.90;;;22.50;70.10;;;;;;5011836;28;20753;-70
2023/06/16 08:23:11;;;;;;;8.10;4.37;;;22.50;68.60;;;;;;5010794;28;20410;-70
2023/06/16 08:25:37;;;;;;;5.33;4.13;;;22.50;69.60;;;;;;5011365;28;20973;-71
2023/06/16 08:28:05;;;;;;;4.27;3.90;;;22.60;70.20;;;;;;5023927;28;20490;-70
2023/06/16 08:30:30;;;;;;;4.20;3.60;;;22.70;69.70;;;;;;5031539;28;20178;-70
2023/06/16 08:32:56;;;;;;;4.60;4.20;;;22.80;69.70;;;;;;5029173;28;20416;-70
2023/06/16 08:35:22;;;;;;;4.17;3.77;;;22.90;67.10;;;;;;5031203;28;20178;-70
2023/06/16 08:37:47;;;;;;;5.47;4.47;;;23.00;66.60;;;;;;5031039;28;20671;-70
2023/06/16 08:40:13;;;;;;;5.70;4.20;;;23.00;63.90;;;;;;5031203;28;20179;-70
2023/06/16 08:42:42;;;;;;;4.90;3.80;;;23.00;60.80;;;;;;5030392;28;20209;-70
2023/06/16 08:45:09;;;;;;;5.20;4.00;;;23.00;59.40;;;;;;5030981;28;20449;-70
2023/06/16 08:47:38;;;;;;;5.60;4.13;;;23.20;59.50;;;;;;5030736;28;20802;-70
2023/06/16 08:50:08;;;;;;;3.83;3.53;;;23.30;58.50;;;;;;5031243;28;20818;-70
2023/06/16 08:52:37;;;;;;;4.37;3.80;;;23.30;58.80;;;;;;5030612;28;20778;-70
2023/06/16 08:55:06;;;;;;;6.40;4.00;;;23.40;59.70;;;;;;5030756;28;20413;-70
2023/06/16 08:57:37;;;;;;;4.00;3.70;;;23.50;59.10;;;;;;5030911;28;20511;-70
2023/06/16 09:00:07;;;;;;;4.33;3.93;;;23.50;57.00;;;;;;5030963;28;20421;-70
2023/06/16 09:02:33;;;;;;;5.00;3.50;;;23.60;58.60;;;;;;5030133;28;20409;-70
2023/06/16 09:04:59;;;;;;;4.17;3.77;;;23.70;58.50;;;;;;5030269;28;20464;-70
2023/06/16 09:07:28;;;;;;;4.17;3.83;;;23.80;60.10;;;;;;5030648;28;20439;-70
2023/06/16 09:09:55;;;;;;;5.03;4.40;;;23.90;59.70;;;;;;5030639;28;20429;-70
2023/06/16 09:12:21;;;;;;;6.40;4.03;;;23.90;58.80;;;;;;5028924;28;20401;-70
2023/06/16 09:14:49;;;;;;;4.67;4.27;;;24.00;58.70;;;;;;5030380;28;20445;-70
2023/06/16 09:17:21;;;;;;;5.50;4.20;;;24.10;59.90;;;;;;5030526;28;20470;-70
2023/06/16 09:19:51;;;;;;;4.33;3.93;;;24.20;59.20;;;;;;5030508;28;20875;-70
2023/06/16 09:22:19;;;;;;;5.47;4.93;;;24.40;60.10;;;;;;5029857;28;20466;-70
2023/06/16 09:24:55;;;;;;;4.33;3.93;;;24.50;58.20;;;;;;5029977;28;20796;-70
2023/06/16 09:27:23;;;;;;;4.90;4.40;;;24.50;57.40;;;;;;5023457;28;20413;-70
2023/06/16 09:29:59;;;;;;;5.03;4.53;;;24.50;57.20;;;;;;5010415;28;20441;-70
2023/06/16 09:32:25;;;;;;;4.53;4.10;;;24.60;56.90;;;;;;5009737;28;20838;-70
2023/06/16 09:34:51;;;;;;;4.83;4.20;;;24.60;58.40;;;;;;5010026;28;20493;-70
2023/06/16 09:37:20;;;;;;;4.23;3.83;;;24.70;57.10;;;;;;5009578;28;20282;-70
2023/06/16 09:39:46;;;;;;;4.00;3.70;;;24.70;58.50;;;;;;5010199;28;20362;-70
2023/06/16 09:42:13;;;;;;;5.30;4.80;;;24.80;58.60;;;;;;5009654;28;20418;-70
2023/06/16 09:44:40;;;;;;;5.10;4.67;;;24.90;59.00;;;;;;5009873;28;20450;-70
2023/06/16 09:47:06;;;;;;;5.77;4.40;;;25.00;59.40;;;;;;5010282;28;20473;-70
2023/06/16 09:49:32;;;;;;;6.63;4.30;;;25.20;58.30;;;;;;5009858;28;20458;-70
2023/06/16 09:51:59;;;;;;;5.27;4.37;;;25.20;60.20;;;;;;5009528;28;20472;-70
2023/06/16 09:54:26;;;;;;;4.80;4.40;;;25.20;58.80;;;;;;5009678;28;20419;-70
2023/06/16 09:56:59;;;;;;;5.10;4.70;;;25.40;60.30;;;;;;5010042;28;20413;-70
2023/06/16 09:59:27;;;;;;;4.80;4.40;;;25.40;59.20;;;;;;5010088;28;20992;-70
2023/06/16 10:01:54;;;;;;;4.80;4.40;;;25.50;58.30;;;;;;5009091;28;20935;-70
2023/06/16 10:04:22;;;;;;;4.67;4.20;;;25.60;56.50;;;;;;5009117;28;20480;-70
2023/06/16 10:07:02;;;;;;;4.47;4.17;;;25.60;55.30;;;;;;5010348;28;20426;-70
2023/06/16 10:09:38;;;;;;;5.00;4.50;;;25.60;54.80;;;;;;5009732;28;20429;-71
2023/06/16 10:12:04;;;;;;;7.07;5.03;;;25.70;56.20;;;;;;5008067;28;20409;-71
2023/06/16 10:14:34;;;;;;;5.07;4.30;;;25.70;58.40;;;;;;5009286;28;20469;-70
2023/06/16 10:17:01;;;;;;;5.70;4.57;;;25.70;56.80;;;;;;5009790;28;20422;-70
2023/06/16 10:19:30;;;;;;;4.80;4.40;;;25.70;59.80;;;;;;5009608;28;20438;-70
2023/06/16 10:21:56;;;;;;;5.07;4.67;;;25.80;57.50;;;;;;5009057;28;20414;-70
2023/06/16 10:24:22;;;;;;;5.00;4.50;;;25.90;55.20;;;;;;5008747;28;20421;-70
2023/06/16 10:26:49;;;;;;;4.77;4.37;;;26.00;56.00;;;;;;5011873;28;20229;-70
2023/06/16 10:29:20;;;;;;;6.10;4.40;;;26.10;55.20;;;;;;5029179;28;20437;-70
2023/06/16 10:31:49;;;;;;;5.50;4.60;;;26.10;54.70;;;;;;5028696;28;20425;-70
2023/06/16 10:34:23;;;;;;;5.27;4.87;;;26.20;55.60;;;;;;5028757;28;20921;-70
2023/06/16 10:36:51;;;;;;;5.60;5.00;;;26.20;53.00;;;;;;5024394;28;20944;-70
2023/06/16 10:39:18;;;;;;;6.00;4.73;;;26.20;53.80;;;;;;5028408;28;20457;-70
2023/06/16 10:41:59;;;;;;;4.93;4.30;;;26.20;55.80;;;;;;5027083;28;20457;-71
2023/06/16 10:44:31;;;;;;;4.77;4.37;;;26.20;54.80;;;;;;5028153;28;20439;-70
2023/06/16 10:47:11;;;;;;;5.40;4.60;;;26.10;53.50;;;;;;5028866;28;20417;-71
2023/06/16 10:49:57;;;;;;;5.00;4.60;;;26.20;56.70;;;;;;5028397;28;20490;-70
2023/06/16 10:52:55;;;;;;;4.93;4.43;;;26.30;56.10;;;;;;5028089;28;21075;-70
2023/06/16 10:55:33;;;;;;;5.27;4.80;;;26.40;56.70;;;;;;5023181;28;20429;-70
2023/06/16 10:58:23;;;;;;;4.70;4.30;;;26.50;55.70;;;;;;5021660;28;20539;-70
2023/06/16 11:00:56;;;;;;;4.90;4.40;;;26.60;53.30;;;;;;5025804;28;20535;-70
2023/06/16 11:03:22;;;;;;;5.80;4.83;;;26.60;51.70;;;;;;5027412;28;20421;-70
2023/06/16 11:05:59;;;;;;;4.70;4.30;;;26.60;50.90;;;;;;5028437;28;20460;-70
2023/06/16 11:08:24;;;;;;;7.93;4.80;;;26.60;54.70;;;;;;5028485;28;20206;-71
2023/06/16 11:10:52;;;;;;;5.17;4.60;;;26.50;51.20;;;;;;5027235;28;20436;-71
2023/06/16 11:13:23;;;;;;;5.57;5.07;;;26.50;53.00;;;;;;5027089;28;20671;-71
2023/06/16 11:15:49;;;;;;;5.57;5.13;;;26.50;54.20;;;;;;5028529;28;20429;-71
2023/06/16 11:18:17;;;;;;;5.73;4.80;;;26.60;54.80;;;;;;5028329;28;20521;-71
2023/06/16 11:20:43;;;;;;;5.63;4.93;;;26.70;53.60;;;;;;5028567;28;20273;-70
2023/06/16 11:23:09;;;;;;;5.33;4.83;;;26.80;54.20;;;;;;5027487;28;20495;-70
2023/06/16 11:25:37;;;;;;;5.53;5.03;;;26.90;54.40;;;;;;5028226;28;21060;-70
2023/06/16 11:28:04;;;;;;;4.73;4.37;;;27.00;53.40;;;;;;5028444;28;20683;-70
2023/06/16 11:30:30;;;;;;;4.53;4.13;;;27.00;53.30;;;;;;5025452;28;20791;-69
2023/06/16 11:32:57;;;;;;;5.83;4.80;;;27.00;53.20;;;;;;5027461;28;20449;-70
2023/06/16 11:35:30;;;;;;;8.00;4.93;;;26.90;53.20;;;;;;5028169;28;20456;-70
2023/06/16 11:37:56;;;;;;;5.17;4.53;;;26.90;52.20;;;;;;5022934;28;20831;-70
2023/06/16 11:40:23;;;;;;;6.43;5.70;;;27.00;54.80;;;;;;5028251;28;20413;-69
2023/06/16 11:42:57;;;;;;;6.27;5.67;;;27.00;52.30;;;;;;5026383;28;20182;-70
2023/06/16 11:45:25;;;;;;;5.63;5.13;;;27.00;53.70;;;;;;5028153;28;20679;-70
2023/06/16 11:47:53;;;;;;;6.17;5.53;;;27.00;53.80;;;;;;5020421;28;20953;-70
2023/06/16 11:50:21;;;;;;;6.33;4.70;;;27.00;53.30;;;;;;5028284;28;20479;-70
2023/06/16 11:52:47;;;;;;;6.43;5.23;;;27.00;53.10;;;;;;5027746;28;20464;-70
2023/06/16 11:55:13;;;;;;;5.30;4.90;;;27.10;52.30;;;;;;5028223;28;20425;-70
2023/06/16 11:57:39;;;;;;;6.17;4.90;;;27.20;54.80;;;;;;5028396;28;20424;-69
2023/06/16 12:00:07;;;;;;;6.10;5.20;;;27.30;51.80;;;;;;5028508;28;20902;-70
2023/06/16 12:02:34;;;;;;;8.53;5.30;;;27.30;53.00;;;;;;5030394;28;20790;-70
2023/06/16 12:05:02;;;;;;;5.23;4.83;;;27.30;53.40;;;;;;5031299;28;20519;-70
2023/06/16 12:07:27;;;;;;;6.80;5.37;;;27.10;52.20;;;;;;5032027;28;20852;-69
2023/06/16 12:09:56;;;;;;;6.37;5.10;;;27.00;52.80;;;;;;5031798;28;20433;-70
2023/06/16 12:12:25;;;;;;;5.60;5.10;;;27.00;53.70;;;;;;5030562;28;20600;-70
2023/06/16 12:14:51;;;;;;;6.00;5.40;;;27.00;51.80;;;;;;5030993;28;20907;-70
2023/06/16 12:17:18;;;;;;;5.63;5.10;;;27.20;54.80;;;;;;5031587;28;20979;-69
2023/06/16 12:19:46;;;;;;;5.00;4.60;;;27.20;52.60;;;;;;5031191;28;20543;-70
2023/06/16 12:22:12;;;;;;;6.80;5.27;;;27.20;54.90;;;;;;5030846;28;20450;-70
2023/06/16 12:24:40;;;;;;;8.80;5.27;;;27.10;54.20;;;;;;5030800;28;20425;-70
2023/06/16 12:27:05;;;;;;;5.50;4.87;;;26.90;52.50;;;;;;5030385;28;20214;-70
2023/06/16 12:29:31;;;;;;;6.47;5.30;;;26.70;52.20;;;;;;5030855;28;20480;-70
2023/06/16 12:32:03;;;;;;;5.13;4.50;;;26.70;53.30;;;;;;5030573;28;20182;-70
2023/06/16 12:34:35;;;;;;;5.73;5.27;;;26.70;54.00;;;;;;5029854;28;20461;-71
2023/06/16 12:37:07;;;;;;;5.50;5.00;;;26.80;54.60;;;;;;5027444;28;20417;-71
2023/06/16 12:39:34;;;;;;;5.70;5.20;;;27.00;54.70;;;;;;5025768;28;20448;-71
2023/06/16 12:42:05;;;;;;;5.90;5.37;;;27.10;54.60;;;;;;5024577;28;20424;-71
2023/06/16 12:45:02;;;;;;;5.47;4.97;;;27.30;54.80;;;;;;5024775;28;20517;-71
2023/06/16 12:47:32;;;;;;;5.30;4.83;;;27.40;54.00;;;;;;5017163;28;20437;-71
2023/06/16 12:50:01;;;;;;;7.73;5.20;;;27.40;54.40;;;;;;5030536;28;20822;-71